sensor_id;sensor_type;location;lat;lon;timestamp;temperature;humidity
35970;DHT22;22448;51.298;6.430;2022-12-11T00:01:19;-0.30;99.90
35970;DHT22;22448;51.298;6.430;2022-12-11T00:03:47;-0.30;99.90
35970;DHT22;22448;51.298;6.430;2022-12-11T00:06:16;-0.30;99.90
35970;DHT22;22448;51.298;6.430;2022-12-11T00:08:43;-0.30;99.90
35970;DHT22;22448;51.298;6.430;2022-12-11T00:11:12;-0.30;99.90
35970;DHT22;22448;51.298;6.430;2022-12-11T00:13:40;-0.30;99.90
35970;DHT22;22448;51.298;6.430;2022-12-11T00:16:08;-0.30;99.90
35970;DHT22;22448;51.298;6.430;2022-12-11T00:18:36;-0.30;99.90
35970;DHT22;22448;51.298;6.430;2022-12-11T00:21:06;-0.30;99.90
35970;DHT22;22448;51.298;6.430;2022-12-11T00:23:34;-0.30;99.90
35970;DHT22;22448;51.298;6.430;2022-12-11T00:26:05;-0.30;99.90
35970;DHT22;22448;51.298;6.430;2022-12-11T00:28:33;-0.30;99.90
35970;DHT22;22448;51.298;6.430;2022-12-11T00:31:08;-0.30;99.90
35970;DHT22;22448;51.298;6.430;2022-12-11T00:33:35;-0.30;99.90
35970;DHT22;22448;51.298;6.430;2022-12-11T00:36:02;-0.30;99.90
35970;DHT22;22448;51.298;6.430;2022-12-11T00:38:29;-0.30;99.90
35970;DHT22;22448;51.298;6.430;2022-12-11T00:40:59;-0.30;99.90
35970;DHT22;22448;51.298;6.430;2022-12-11T00:43:26;-0.30;99.90
35970;DHT22;22448;51.298;6.430;2022-12-11T00:45:53;-0.30;99.90
35970;DHT22;22448;51.298;6.430;2022-12-11T00:48:20;-0.30;99.90
35970;DHT22;22448;51.298;6.430;2022-12-11T00:50:47;-0.30;99.90
35970;DHT22;22448;51.298;6.430;2022-12-11T00:53:15;-0.30;99.90
35970;DHT22;22448;51.298;6.430;2022-12-11T00:55:42;-0.30;99.90
35970;DHT22;22448;51.298;6.430;2022-12-11T00:58:10;-0.30;99.90
35970;DHT22;22448;51.298;6.430;2022-12-11T01:00:38;-0.30;99.90
35970;DHT22;22448;51.298;6.430;2022-12-11T01:03:05;-0.30;99.90
35970;DHT22;22448;51.298;6.430;2022-12-11T01:05:33;-0.30;99.90
35970;DHT22;22448;51.298;6.430;2022-12-11T01:08:00;-0.30;99.90
35970;DHT22;22448;51.298;6.430;2022-12-11T01:10:27;-0.30;99.90
35970;DHT22;22448;51.298;6.430;2022-12-11T01:13:14;-0.30;99.90
35970;DHT22;22448;51.298;6.430;2022-12-11T01:15:44;-0.30;99.90
35970;DHT22;22448;51.298;6.430;2022-12-11T01:18:12;-0.20;99.90
35970;DHT22;22448;51.298;6.430;2022-12-11T01:20:40;-0.20;99.90
35970;DHT22;22448;51.298;6.430;2022-12-11T01:23:09;-0.20;99.90
35970;DHT22;22448;51.298;6.430;2022-12-11T01:25:37;-0.20;99.90
35970;DHT22;22448;51.298;6.430;2022-12-11T01:28:04;-0.20;99.90
35970;DHT22;22448;51.298;6.430;2022-12-11T01:30:32;-0.20;99.90
35970;DHT22;22448;51.298;6.430;2022-12-11T01:32:59;-0.20;99.90
35970;DHT22;22448;51.298;6.430;2022-12-11T01:35:27;-0.20;99.90
35970;DHT22;22448;51.298;6.430;2022-12-11T01:37:54;-0.20;99.90
35970;DHT22;22448;51.298;6.430;2022-12-11T01:40:21;-0.20;99.90
35970;DHT22;22448;51.298;6.430;2022-12-11T01:42:48;-0.10;99.90
35970;DHT22;22448;51.298;6.430;2022-12-11T01:45:39;-0.20;99.90
35970;DHT22;22448;51.298;6.430;2022-12-11T01:48:10;-0.10;99.90
35970;DHT22;22448;51.298;6.430;2022-12-11T01:50:44;-0.10;99.90
35970;DHT22;22448;51.298;6.430;2022-12-11T01:53:17;-0.10;99.90
35970;DHT22;22448;51.298;6.430;2022-12-11T01:55:46;-0.10;99.90
35970;DHT22;22448;51.298;6.430;2022-12-11T01:58:15;-0.10;99.90
35970;DHT22;22448;51.298;6.430;2022-12-11T02:00:42;-0.10;99.90
35970;DHT22;22448;51.298;6.430;2022-12-11T02:03:09;-0.10;99.90
35970;DHT22;22448;51.298;6.430;2022-12-11T02:05:36;-0.10;99.90
35970;DHT22;22448;51.298;6.430;2022-12-11T02:08:04;0.00;99.90
35970;DHT22;22448;51.298;6.430;2022-12-11T02:10:53;0.00;99.90
35970;DHT22;22448;51.298;6.430;2022-12-11T02:13:38;-0.10;99.90
35970;DHT22;22448;51.298;6.430;2022-12-11T02:16:18;0.00;99.90
35970;DHT22;22448;51.298;6.430;2022-12-11T02:19:02;-0.10;99.90
35970;DHT22;22448;51.298;6.430;2022-12-11T02:21:37;-0.10;99.90
35970;DHT22;22448;51.298;6.430;2022-12-11T02:26:46;0.00;99.90
35970;DHT22;22448;51.298;6.430;2022-12-11T02:29:27;-0.10;99.90
35970;DHT22;22448;51.298;6.430;2022-12-11T02:32:03;0.00;99.90
35970;DHT22;22448;51.298;6.430;2022-12-11T02:34:48;0.00;99.90
35970;DHT22;22448;51.298;6.430;2022-12-11T02:37:23;0.00;99.90
35970;DHT22;22448;51.298;6.430;2022-12-11T02:39:53;0.00;99.90
35970;DHT22;22448;51.298;6.430;2022-12-11T02:42:23;0.00;99.90
35970;DHT22;22448;51.298;6.430;2022-12-11T02:44:53;0.00;99.90
35970;DHT22;22448;51.298;6.430;2022-12-11T02:47:23;0.00;99.90
35970;DHT22;22448;51.298;6.430;2022-12-11T02:49:53;0.00;99.90
35970;DHT22;22448;51.298;6.430;2022-12-11T02:52:22;0.00;99.90
35970;DHT22;22448;51.298;6.430;2022-12-11T02:54:53;0.00;99.90
35970;DHT22;22448;51.298;6.430;2022-12-11T02:57:41;0.00;99.90
35970;DHT22;22448;51.298;6.430;2022-12-11T03:00:11;0.00;99.90
35970;DHT22;22448;51.298;6.430;2022-12-11T03:02:40;0.00;99.90
35970;DHT22;22448;51.298;6.430;2022-12-11T03:05:09;0.00;99.90
35970;DHT22;22448;51.298;6.430;2022-12-11T03:07:39;0.00;99.90
35970;DHT22;22448;51.298;6.430;2022-12-11T03:10:09;0.00;99.90
35970;DHT22;22448;51.298;6.430;2022-12-11T03:12:38;0.00;99.90
35970;DHT22;22448;51.298;6.430;2022-12-11T03:15:09;0.00;99.90
35970;DHT22;22448;51.298;6.430;2022-12-11T03:23:21;0.00;99.90
35970;DHT22;22448;51.298;6.430;2022-12-11T03:26:02;0.00;99.90
35970;DHT22;22448;51.298;6.430;2022-12-11T03:28:45;0.10;99.90
35970;DHT22;22448;51.298;6.430;2022-12-11T03:31:20;0.00;99.90
35970;DHT22;22448;51.298;6.430;2022-12-11T03:33:50;0.00;99.90
35970;DHT22;22448;51.298;6.430;2022-12-11T03:36:32;0.00;99.90
35970;DHT22;22448;51.298;6.430;2022-12-11T03:39:08;0.00;99.90
35970;DHT22;22448;51.298;6.430;2022-12-11T03:41:37;0.00;99.90
35970;DHT22;22448;51.298;6.430;2022-12-11T03:44:07;0.00;99.90
35970;DHT22;22448;51.298;6.430;2022-12-11T03:46:38;0.10;99.90
35970;DHT22;22448;51.298;6.430;2022-12-11T03:49:15;0.10;99.90
35970;DHT22;22448;51.298;6.430;2022-12-11T03:51:44;0.10;99.90
35970;DHT22;22448;51.298;6.430;2022-12-11T03:54:12;0.10;99.90
35970;DHT22;22448;51.298;6.430;2022-12-11T03:56:40;0.10;99.90
35970;DHT22;22448;51.298;6.430;2022-12-11T03:59:08;0.10;99.90
35970;DHT22;22448;51.298;6.430;2022-12-11T04:01:35;0.10;99.90
35970;DHT22;22448;51.298;6.430;2022-12-11T04:04:02;0.10;99.90
35970;DHT22;22448;51.298;6.430;2022-12-11T04:06:29;0.10;99.90
35970;DHT22;22448;51.298;6.430;2022-12-11T04:08:56;0.10;99.90
35970;DHT22;22448;51.298;6.430;2022-12-11T04:11:23;0.10;99.90
35970;DHT22;22448;51.298;6.430;2022-12-11T04:14:12;0.10;99.90
35970;DHT22;22448;51.298;6.430;2022-12-11T04:16:59;0.10;99.90
35970;DHT22;22448;51.298;6.430;2022-12-11T04:19:27;0.10;99.90
35970;DHT22;22448;51.298;6.430;2022-12-11T04:22:14;0.00;99.90
35970;DHT22;22448;51.298;6.430;2022-12-11T04:25:01;0.10;99.90
35970;DHT22;22448;51.298;6.430;2022-12-11T04:27:29;0.00;99.90
35970;DHT22;22448;51.298;6.430;2022-12-11T04:30:18;0.00;99.90
35970;DHT22;22448;51.298;6.430;2022-12-11T04:32:45;0.00;99.90
35970;DHT22;22448;51.298;6.430;2022-12-11T04:35:13;0.00;99.90
35970;DHT22;22448;51.298;6.430;2022-12-11T04:37:40;0.00;99.90
35970;DHT22;22448;51.298;6.430;2022-12-11T04:40:10;0.00;99.90
35970;DHT22;22448;51.298;6.430;2022-12-11T04:42:37;0.00;99.90
35970;DHT22;22448;51.298;6.430;2022-12-11T04:45:05;0.00;99.90
35970;DHT22;22448;51.298;6.430;2022-12-11T04:47:34;0.00;99.90
35970;DHT22;22448;51.298;6.430;2022-12-11T04:50:03;0.00;99.90
35970;DHT22;22448;51.298;6.430;2022-12-11T04:52:31;0.00;99.90
35970;DHT22;22448;51.298;6.430;2022-12-11T04:54:58;0.00;99.90
35970;DHT22;22448;51.298;6.430;2022-12-11T04:57:24;0.00;99.90
35970;DHT22;22448;51.298;6.430;2022-12-11T04:59:51;0.00;99.90
35970;DHT22;22448;51.298;6.430;2022-12-11T05:02:18;-0.10;99.90
35970;DHT22;22448;51.298;6.430;2022-12-11T05:04:45;0.00;99.90
35970;DHT22;22448;51.298;6.430;2022-12-11T05:07:12;0.00;99.90
35970;DHT22;22448;51.298;6.430;2022-12-11T05:09:40;0.00;99.90
35970;DHT22;22448;51.298;6.430;2022-12-11T05:12:06;0.00;99.90
35970;DHT22;22448;51.298;6.430;2022-12-11T05:14:33;0.00;99.90
35970;DHT22;22448;51.298;6.430;2022-12-11T05:17:00;0.00;99.90
35970;DHT22;22448;51.298;6.430;2022-12-11T05:19:27;0.00;99.90
35970;DHT22;22448;51.298;6.430;2022-12-11T05:21:54;-0.10;99.90
35970;DHT22;22448;51.298;6.430;2022-12-11T05:24:21;-0.10;99.90
35970;DHT22;22448;51.298;6.430;2022-12-11T05:26:48;-0.10;99.90
35970;DHT22;22448;51.298;6.430;2022-12-11T05:29:15;-0.10;99.90
35970;DHT22;22448;51.298;6.430;2022-12-11T05:31:42;-0.10;99.90
35970;DHT22;22448;51.298;6.430;2022-12-11T05:34:09;-0.10;99.90
35970;DHT22;22448;51.298;6.430;2022-12-11T05:36:36;0.00;99.90
35970;DHT22;22448;51.298;6.430;2022-12-11T05:39:03;-0.10;99.90
35970;DHT22;22448;51.298;6.430;2022-12-11T05:41:31;0.00;99.90
35970;DHT22;22448;51.298;6.430;2022-12-11T05:43:58;0.00;99.90
35970;DHT22;22448;51.298;6.430;2022-12-11T05:46:27;-0.10;99.90
35970;DHT22;22448;51.298;6.430;2022-12-11T05:48:58;-0.10;99.90
35970;DHT22;22448;51.298;6.430;2022-12-11T05:51:26;0.00;99.90
35970;DHT22;22448;51.298;6.430;2022-12-11T05:53:55;-0.10;99.90
35970;DHT22;22448;51.298;6.430;2022-12-11T05:56:29;-0.10;99.90
35970;DHT22;22448;51.298;6.430;2022-12-11T05:58:57;-0.10;99.90
35970;DHT22;22448;51.298;6.430;2022-12-11T06:01:27;-0.10;99.90
35970;DHT22;22448;51.298;6.430;2022-12-11T06:03:55;-0.10;99.90
35970;DHT22;22448;51.298;6.430;2022-12-11T06:06:23;-0.10;99.90
35970;DHT22;22448;51.298;6.430;2022-12-11T06:08:51;-0.10;99.90
35970;DHT22;22448;51.298;6.430;2022-12-11T06:11:20;-0.10;99.90
35970;DHT22;22448;51.298;6.430;2022-12-11T06:13:51;-0.10;99.90
35970;DHT22;22448;51.298;6.430;2022-12-11T06:16:19;-0.10;99.90
35970;DHT22;22448;51.298;6.430;2022-12-11T06:18:47;-0.10;99.90
35970;DHT22;22448;51.298;6.430;2022-12-11T06:21:16;-0.10;99.90
35970;DHT22;22448;51.298;6.430;2022-12-11T06:23:45;-0.10;99.90
35970;DHT22;22448;51.298;6.430;2022-12-11T06:26:13;-0.10;99.90
35970;DHT22;22448;51.298;6.430;2022-12-11T06:28:40;-0.10;99.90
35970;DHT22;22448;51.298;6.430;2022-12-11T06:31:07;-0.10;99.90
35970;DHT22;22448;51.298;6.430;2022-12-11T06:33:35;-0.10;99.90
35970;DHT22;22448;51.298;6.430;2022-12-11T06:36:11;-0.10;99.90
35970;DHT22;22448;51.298;6.430;2022-12-11T06:38:38;-0.10;99.90
35970;DHT22;22448;51.298;6.430;2022-12-11T06:41:06;-0.10;99.90
35970;DHT22;22448;51.298;6.430;2022-12-11T06:43:35;-0.10;99.90
35970;DHT22;22448;51.298;6.430;2022-12-11T06:46:04;-0.10;99.90
35970;DHT22;22448;51.298;6.430;2022-12-11T06:48:32;-0.10;99.90
35970;DHT22;22448;51.298;6.430;2022-12-11T06:51:04;-0.10;99.90
35970;DHT22;22448;51.298;6.430;2022-12-11T06:53:31;-0.10;99.90
35970;DHT22;22448;51.298;6.430;2022-12-11T06:56:09;-0.10;99.90
35970;DHT22;22448;51.298;6.430;2022-12-11T06:58:37;-0.10;99.90
35970;DHT22;22448;51.298;6.430;2022-12-11T07:01:11;-0.10;99.90
35970;DHT22;22448;51.298;6.430;2022-12-11T07:03:39;-0.10;99.90
35970;DHT22;22448;51.298;6.430;2022-12-11T07:06:06;0.00;99.90
35970;DHT22;22448;51.298;6.430;2022-12-11T07:08:33;0.00;99.90
35970;DHT22;22448;51.298;6.430;2022-12-11T07:11:05;0.00;99.90
35970;DHT22;22448;51.298;6.430;2022-12-11T07:13:32;0.00;99.90
35970;DHT22;22448;51.298;6.430;2022-12-11T07:16:00;0.00;99.90
35970;DHT22;22448;51.298;6.430;2022-12-11T07:18:27;0.00;99.90
35970;DHT22;22448;51.298;6.430;2022-12-11T07:20:57;0.00;99.90
35970;DHT22;22448;51.298;6.430;2022-12-11T07:23:26;0.00;99.90
35970;DHT22;22448;51.298;6.430;2022-12-11T07:25:54;0.00;99.90
35970;DHT22;22448;51.298;6.430;2022-12-11T07:28:21;0.00;99.90
35970;DHT22;22448;51.298;6.430;2022-12-11T07:30:48;0.00;99.90
35970;DHT22;22448;51.298;6.430;2022-12-11T07:33:15;0.00;99.90
35970;DHT22;22448;51.298;6.430;2022-12-11T07:35:43;0.10;99.90
35970;DHT22;22448;51.298;6.430;2022-12-11T07:38:10;0.10;99.90
35970;DHT22;22448;51.298;6.430;2022-12-11T07:40:37;0.10;99.90
35970;DHT22;22448;51.298;6.430;2022-12-11T07:43:04;0.10;99.90
35970;DHT22;22448;51.298;6.430;2022-12-11T07:45:32;0.10;99.90
35970;DHT22;22448;51.298;6.430;2022-12-11T07:47:59;0.10;99.90
35970;DHT22;22448;51.298;6.430;2022-12-11T07:50:26;0.10;99.90
35970;DHT22;22448;51.298;6.430;2022-12-11T07:52:53;0.10;99.90
35970;DHT22;22448;51.298;6.430;2022-12-11T07:55:20;0.10;99.90
35970;DHT22;22448;51.298;6.430;2022-12-11T07:57:47;0.10;99.90
35970;DHT22;22448;51.298;6.430;2022-12-11T08:00:14;0.20;99.90
35970;DHT22;22448;51.298;6.430;2022-12-11T08:02:41;0.20;99.90
35970;DHT22;22448;51.298;6.430;2022-12-11T08:05:09;0.20;99.90
35970;DHT22;22448;51.298;6.430;2022-12-11T08:07:36;0.20;99.90
35970;DHT22;22448;51.298;6.430;2022-12-11T08:10:04;0.20;99.90
35970;DHT22;22448;51.298;6.430;2022-12-11T08:12:31;0.20;99.90
35970;DHT22;22448;51.298;6.430;2022-12-11T08:14:58;0.20;99.90
35970;DHT22;22448;51.298;6.430;2022-12-11T08:17:25;0.20;99.90
35970;DHT22;22448;51.298;6.430;2022-12-11T08:19:58;0.20;99.90
35970;DHT22;22448;51.298;6.430;2022-12-11T08:22:25;0.20;99.90
35970;DHT22;22448;51.298;6.430;2022-12-11T08:24:52;0.20;99.90
35970;DHT22;22448;51.298;6.430;2022-12-11T08:27:19;0.20;99.90
35970;DHT22;22448;51.298;6.430;2022-12-11T08:29:46;0.20;99.90
35970;DHT22;22448;51.298;6.430;2022-12-11T08:32:13;0.20;99.90
35970;DHT22;22448;51.298;6.430;2022-12-11T08:34:42;0.20;99.90
35970;DHT22;22448;51.298;6.430;2022-12-11T08:37:09;0.20;99.90
35970;DHT22;22448;51.298;6.430;2022-12-11T08:39:36;0.20;99.90
35970;DHT22;22448;51.298;6.430;2022-12-11T08:42:03;0.20;99.90
35970;DHT22;22448;51.298;6.430;2022-12-11T08:44:30;0.20;99.90
35970;DHT22;22448;51.298;6.430;2022-12-11T08:46:57;0.20;99.90
35970;DHT22;22448;51.298;6.430;2022-12-11T08:49:24;0.20;99.90
35970;DHT22;22448;51.298;6.430;2022-12-11T08:51:58;0.30;99.90
35970;DHT22;22448;51.298;6.430;2022-12-11T08:54:25;0.30;99.90
35970;DHT22;22448;51.298;6.430;2022-12-11T08:56:51;0.30;99.90
35970;DHT22;22448;51.298;6.430;2022-12-11T08:59:24;0.40;99.90
35970;DHT22;22448;51.298;6.430;2022-12-11T09:01:51;0.40;99.90
35970;DHT22;22448;51.298;6.430;2022-12-11T09:04:19;0.40;99.90
35970;DHT22;22448;51.298;6.430;2022-12-11T09:06:46;0.40;99.90
35970;DHT22;22448;51.298;6.430;2022-12-11T09:09:14;0.40;99.90
35970;DHT22;22448;51.298;6.430;2022-12-11T09:11:41;0.40;99.90
35970;DHT22;22448;51.298;6.430;2022-12-11T09:14:08;0.30;99.90
35970;DHT22;22448;51.298;6.430;2022-12-11T09:16:38;0.30;99.90
35970;DHT22;22448;51.298;6.430;2022-12-11T09:19:10;0.40;99.90
35970;DHT22;22448;51.298;6.430;2022-12-11T09:21:39;0.40;99.90
35970;DHT22;22448;51.298;6.430;2022-12-11T09:24:08;0.40;99.90
35970;DHT22;22448;51.298;6.430;2022-12-11T09:26:37;0.40;99.90
35970;DHT22;22448;51.298;6.430;2022-12-11T09:29:05;0.40;99.90
35970;DHT22;22448;51.298;6.430;2022-12-11T09:31:34;0.40;99.90
35970;DHT22;22448;51.298;6.430;2022-12-11T09:34:05;0.40;99.90
35970;DHT22;22448;51.298;6.430;2022-12-11T09:36:33;0.40;99.90
35970;DHT22;22448;51.298;6.430;2022-12-11T09:39:02;0.40;99.90
35970;DHT22;22448;51.298;6.430;2022-12-11T09:41:51;0.50;99.90
35970;DHT22;22448;51.298;6.430;2022-12-11T09:44:30;0.40;99.90
35970;DHT22;22448;51.298;6.430;2022-12-11T09:46:58;0.40;99.90
35970;DHT22;22448;51.298;6.430;2022-12-11T09:49:33;0.40;99.90
35970;DHT22;22448;51.298;6.430;2022-12-11T09:52:17;0.40;99.90
35970;DHT22;22448;51.298;6.430;2022-12-11T09:54:52;0.50;99.90
35970;DHT22;22448;51.298;6.430;2022-12-11T10:00:37;0.50;99.90
35970;DHT22;22448;51.298;6.430;2022-12-11T10:03:40;0.60;99.90
35970;DHT22;22448;51.298;6.430;2022-12-11T10:06:24;0.60;99.90
35970;DHT22;22448;51.298;6.430;2022-12-11T10:12:04;0.60;99.90
35970;DHT22;22448;51.298;6.430;2022-12-11T10:17:27;0.60;99.90
35970;DHT22;22448;51.298;6.430;2022-12-11T10:19:57;0.60;99.90
35970;DHT22;22448;51.298;6.430;2022-12-11T10:22:29;0.60;99.90
35970;DHT22;22448;51.298;6.430;2022-12-11T10:25:02;0.60;99.90
35970;DHT22;22448;51.298;6.430;2022-12-11T10:27:39;0.60;99.90
35970;DHT22;22448;51.298;6.430;2022-12-11T10:33:05;0.50;99.90
35970;DHT22;22448;51.298;6.430;2022-12-11T10:38:19;0.40;99.90
35970;DHT22;22448;51.298;6.430;2022-12-11T10:40:51;0.40;99.90
35970;DHT22;22448;51.298;6.430;2022-12-11T10:43:18;0.40;99.90
35970;DHT22;22448;51.298;6.430;2022-12-11T10:45:52;0.40;99.90
35970;DHT22;22448;51.298;6.430;2022-12-11T10:48:19;0.40;99.90
35970;DHT22;22448;51.298;6.430;2022-12-11T10:50:56;0.40;99.90
35970;DHT22;22448;51.298;6.430;2022-12-11T10:53:25;0.40;99.90
35970;DHT22;22448;51.298;6.430;2022-12-11T10:55:52;0.50;99.90
35970;DHT22;22448;51.298;6.430;2022-12-11T10:58:22;0.50;99.90
35970;DHT22;22448;51.298;6.430;2022-12-11T11:01:03;0.60;99.90
35970;DHT22;22448;51.298;6.430;2022-12-11T11:03:31;0.60;99.90
35970;DHT22;22448;51.298;6.430;2022-12-11T11:06:14;0.70;99.90
35970;DHT22;22448;51.298;6.430;2022-12-11T11:08:48;0.70;99.90
35970;DHT22;22448;51.298;6.430;2022-12-11T11:11:29;0.70;99.90
35970;DHT22;22448;51.298;6.430;2022-12-11T11:14:15;0.70;99.90
35970;DHT22;22448;51.298;6.430;2022-12-11T11:16:44;0.70;99.90
35970;DHT22;22448;51.298;6.430;2022-12-11T11:19:38;0.60;99.90
35970;DHT22;22448;51.298;6.430;2022-12-11T11:22:16;0.60;99.90
35970;DHT22;22448;51.298;6.430;2022-12-11T11:24:56;0.60;99.90
35970;DHT22;22448;51.298;6.430;2022-12-11T11:29:57;0.60;99.90
35970;DHT22;22448;51.298;6.430;2022-12-11T11:32:37;0.50;99.90
35970;DHT22;22448;51.298;6.430;2022-12-11T11:37:41;0.50;99.90
35970;DHT22;22448;51.298;6.430;2022-12-11T11:40:24;0.40;99.90
35970;DHT22;22448;51.298;6.430;2022-12-11T11:43:14;0.50;99.90
35970;DHT22;22448;51.298;6.430;2022-12-11T11:45:52;0.40;99.90
35970;DHT22;22448;51.298;6.430;2022-12-11T11:51:18;0.40;99.90
35970;DHT22;22448;51.298;6.430;2022-12-11T11:53:49;0.30;99.90
35970;DHT22;22448;51.298;6.430;2022-12-11T11:56:24;0.30;99.90
35970;DHT22;22448;51.298;6.430;2022-12-11T11:59:00;0.20;99.90
35970;DHT22;22448;51.298;6.430;2022-12-11T12:01:29;0.20;99.90
35970;DHT22;22448;51.298;6.430;2022-12-11T12:03:56;0.20;99.90
35970;DHT22;22448;51.298;6.430;2022-12-11T12:09:32;0.30;99.90
35970;DHT22;22448;51.298;6.430;2022-12-11T12:15:56;0.40;99.90
35970;DHT22;22448;51.298;6.430;2022-12-11T12:29:11;0.60;99.90
35970;DHT22;22448;51.298;6.430;2022-12-11T12:34:21;0.70;99.90
35970;DHT22;22448;51.298;6.430;2022-12-11T12:39:59;0.60;99.90
35970;DHT22;22448;51.298;6.430;2022-12-11T12:42:43;0.70;99.90
35970;DHT22;22448;51.298;6.430;2022-12-11T12:47:43;0.70;99.90
35970;DHT22;22448;51.298;6.430;2022-12-11T12:50:21;0.70;99.90
35970;DHT22;22448;51.298;6.430;2022-12-11T12:52:50;0.70;99.90
35970;DHT22;22448;51.298;6.430;2022-12-11T12:55:24;0.70;99.90
35970;DHT22;22448;51.298;6.430;2022-12-11T12:58:04;0.70;99.90
35970;DHT22;22448;51.298;6.430;2022-12-11T13:00:41;0.70;99.90
35970;DHT22;22448;51.298;6.430;2022-12-11T13:03:16;0.70;99.90
35970;DHT22;22448;51.298;6.430;2022-12-11T13:05:53;0.70;99.90
35970;DHT22;22448;51.298;6.430;2022-12-11T13:08:29;0.70;99.90
35970;DHT22;22448;51.298;6.430;2022-12-11T13:11:06;0.70;99.90
35970;DHT22;22448;51.298;6.430;2022-12-11T13:13:40;0.70;99.90
35970;DHT22;22448;51.298;6.430;2022-12-11T13:18:47;0.60;99.90
35970;DHT22;22448;51.298;6.430;2022-12-11T13:21:33;0.60;99.90
35970;DHT22;22448;51.298;6.430;2022-12-11T13:24:23;0.60;99.90
35970;DHT22;22448;51.298;6.430;2022-12-11T13:26:52;0.60;99.90
35970;DHT22;22448;51.298;6.430;2022-12-11T13:32:22;0.70;99.90
35970;DHT22;22448;51.298;6.430;2022-12-11T13:34:58;0.70;99.90
35970;DHT22;22448;51.298;6.430;2022-12-11T13:37:32;0.70;99.90
35970;DHT22;22448;51.298;6.430;2022-12-11T13:40:04;0.60;99.90
35970;DHT22;22448;51.298;6.430;2022-12-11T13:42:43;0.60;99.90
35970;DHT22;22448;51.298;6.430;2022-12-11T13:45:27;0.60;99.90
35970;DHT22;22448;51.298;6.430;2022-12-11T13:47:56;0.60;99.90
35970;DHT22;22448;51.298;6.430;2022-12-11T13:50:28;0.60;99.90
35970;DHT22;22448;51.298;6.430;2022-12-11T13:53:00;0.50;99.90
35970;DHT22;22448;51.298;6.430;2022-12-11T13:55:32;0.50;99.90
35970;DHT22;22448;51.298;6.430;2022-12-11T13:58:00;0.60;99.90
35970;DHT22;22448;51.298;6.430;2022-12-11T14:00:29;0.60;99.90
35970;DHT22;22448;51.298;6.430;2022-12-11T14:03:01;0.60;99.90
35970;DHT22;22448;51.298;6.430;2022-12-11T14:05:30;0.60;99.90
35970;DHT22;22448;51.298;6.430;2022-12-11T14:08:05;0.60;99.90
35970;DHT22;22448;51.298;6.430;2022-12-11T14:10:35;0.60;99.90
35970;DHT22;22448;51.298;6.430;2022-12-11T14:13:03;0.60;99.90
35970;DHT22;22448;51.298;6.430;2022-12-11T14:15:32;0.60;99.90
35970;DHT22;22448;51.298;6.430;2022-12-11T14:18:01;0.60;99.90
35970;DHT22;22448;51.298;6.430;2022-12-11T14:20:31;0.60;99.90
35970;DHT22;22448;51.298;6.430;2022-12-11T14:23:12;0.60;99.90
35970;DHT22;22448;51.298;6.430;2022-12-11T14:25:41;0.60;99.90
35970;DHT22;22448;51.298;6.430;2022-12-11T14:28:15;0.60;99.90
35970;DHT22;22448;51.298;6.430;2022-12-11T14:30:46;0.60;99.90
35970;DHT22;22448;51.298;6.430;2022-12-11T14:33:15;0.50;99.90
35970;DHT22;22448;51.298;6.430;2022-12-11T14:35:44;0.50;99.90
35970;DHT22;22448;51.298;6.430;2022-12-11T14:38:24;0.50;99.90
35970;DHT22;22448;51.298;6.430;2022-12-11T14:40:56;0.50;99.90
35970;DHT22;22448;51.298;6.430;2022-12-11T14:43:35;0.40;99.90
35970;DHT22;22448;51.298;6.430;2022-12-11T14:46:08;0.40;99.90
35970;DHT22;22448;51.298;6.430;2022-12-11T14:48:47;0.40;99.90
35970;DHT22;22448;51.298;6.430;2022-12-11T14:51:17;0.40;99.90
35970;DHT22;22448;51.298;6.430;2022-12-11T14:53:46;0.30;99.90
35970;DHT22;22448;51.298;6.430;2022-12-11T14:56:20;0.30;99.90
35970;DHT22;22448;51.298;6.430;2022-12-11T14:58:54;0.30;99.90
35970;DHT22;22448;51.298;6.430;2022-12-11T15:01:33;0.30;99.90
35970;DHT22;22448;51.298;6.430;2022-12-11T15:04:03;0.30;99.90
35970;DHT22;22448;51.298;6.430;2022-12-11T15:06:32;0.30;99.90
35970;DHT22;22448;51.298;6.430;2022-12-11T15:09:23;0.30;99.90
35970;DHT22;22448;51.298;6.430;2022-12-11T15:11:51;0.20;99.90
35970;DHT22;22448;51.298;6.430;2022-12-11T15:14:20;0.20;99.90
35970;DHT22;22448;51.298;6.430;2022-12-11T15:16:48;0.20;99.90
35970;DHT22;22448;51.298;6.430;2022-12-11T15:19:23;0.20;99.90
35970;DHT22;22448;51.298;6.430;2022-12-11T15:21:51;0.20;99.90
35970;DHT22;22448;51.298;6.430;2022-12-11T15:24:39;0.20;99.90
35970;DHT22;22448;51.298;6.430;2022-12-11T15:27:29;0.10;99.90
35970;DHT22;22448;51.298;6.430;2022-12-11T15:29:57;0.10;99.90
35970;DHT22;22448;51.298;6.430;2022-12-11T15:32:25;0.10;99.90
35970;DHT22;22448;51.298;6.430;2022-12-11T15:34:57;0.10;99.90
35970;DHT22;22448;51.298;6.430;2022-12-11T15:37:30;0.10;99.90
35970;DHT22;22448;51.298;6.430;2022-12-11T15:39:59;0.10;99.90
35970;DHT22;22448;51.298;6.430;2022-12-11T15:42:35;0.00;99.90
35970;DHT22;22448;51.298;6.430;2022-12-11T15:45:06;0.00;99.90
35970;DHT22;22448;51.298;6.430;2022-12-11T15:47:33;0.00;99.90
35970;DHT22;22448;51.298;6.430;2022-12-11T15:50:27;0.00;99.90
35970;DHT22;22448;51.298;6.430;2022-12-11T15:52:55;0.00;99.90
35970;DHT22;22448;51.298;6.430;2022-12-11T15:55:25;0.00;99.90
35970;DHT22;22448;51.298;6.430;2022-12-11T15:58:00;-0.10;99.90
35970;DHT22;22448;51.298;6.430;2022-12-11T16:00:28;-0.10;99.90
35970;DHT22;22448;51.298;6.430;2022-12-11T16:02:56;-0.10;99.90
35970;DHT22;22448;51.298;6.430;2022-12-11T16:05:23;-0.10;99.90
35970;DHT22;22448;51.298;6.430;2022-12-11T16:07:50;-0.10;99.90
35970;DHT22;22448;51.298;6.430;2022-12-11T16:10:26;0.00;99.90
35970;DHT22;22448;51.298;6.430;2022-12-11T16:12:52;-0.10;99.90
35970;DHT22;22448;51.298;6.430;2022-12-11T16:15:25;0.00;99.90
35970;DHT22;22448;51.298;6.430;2022-12-11T16:18:06;-0.10;99.90
35970;DHT22;22448;51.298;6.430;2022-12-11T16:20:34;0.00;99.90
35970;DHT22;22448;51.298;6.430;2022-12-11T16:23:02;-0.10;99.90
35970;DHT22;22448;51.298;6.430;2022-12-11T16:25:30;0.00;99.90
35970;DHT22;22448;51.298;6.430;2022-12-11T16:28:00;0.00;99.90
35970;DHT22;22448;51.298;6.430;2022-12-11T16:30:28;0.00;99.90
35970;DHT22;22448;51.298;6.430;2022-12-11T16:32:55;0.00;99.90
35970;DHT22;22448;51.298;6.430;2022-12-11T16:35:22;0.00;99.90
35970;DHT22;22448;51.298;6.430;2022-12-11T16:37:50;0.00;99.90
35970;DHT22;22448;51.298;6.430;2022-12-11T16:40:19;0.00;99.90
35970;DHT22;22448;51.298;6.430;2022-12-11T16:42:46;-0.10;99.90
35970;DHT22;22448;51.298;6.430;2022-12-11T16:45:15;-0.10;99.90
35970;DHT22;22448;51.298;6.430;2022-12-11T16:47:43;-0.10;99.90
35970;DHT22;22448;51.298;6.430;2022-12-11T16:50:11;-0.10;99.90
35970;DHT22;22448;51.298;6.430;2022-12-11T16:52:40;-0.10;99.90
35970;DHT22;22448;51.298;6.430;2022-12-11T16:55:08;-0.10;99.90
35970;DHT22;22448;51.298;6.430;2022-12-11T16:57:36;-0.10;99.90
35970;DHT22;22448;51.298;6.430;2022-12-11T17:00:07;-0.10;99.90
35970;DHT22;22448;51.298;6.430;2022-12-11T17:02:35;-0.10;99.90
35970;DHT22;22448;51.298;6.430;2022-12-11T17:05:02;-0.10;99.90
35970;DHT22;22448;51.298;6.430;2022-12-11T17:07:31;-0.10;99.90
35970;DHT22;22448;51.298;6.430;2022-12-11T17:09:58;-0.10;99.90